sensor_id;sensor_type;location;lat;lon;timestamp;temperature;humidity
23147;DHT22;11742;53.532;-1.478;2023-02-11T00:00:59;13.60;82.70
23147;DHT22;11742;53.532;-1.478;2023-02-11T00:03:43;13.60;82.70
23147;DHT22;11742;53.532;-1.478;2023-02-11T00:06:28;13.60;82.70
23147;DHT22;11742;53.532;-1.478;2023-02-11T00:09:13;13.60;82.80
23147;DHT22;11742;53.532;-1.478;2023-02-11T00:11:57;13.60;82.90
23147;DHT22;11742;53.532;-1.478;2023-02-11T00:14:41;13.60;82.80
23147;DHT22;11742;53.532;-1.478;2023-02-11T00:17:25;13.70;82.80
23147;DHT22;11742;53.532;-1.478;2023-02-11T00:20:10;13.60;82.70
23147;DHT22;11742;53.532;-1.478;2023-02-11T00:22:54;13.60;82.60
23147;DHT22;11742;53.532;-1.478;2023-02-11T00:25:39;13.60;82.60
23147;DHT22;11742;53.532;-1.478;2023-02-11T00:28:23;13.60;82.70
23147;DHT22;11742;53.532;-1.478;2023-02-11T00:31:08;13.70;82.80
23147;DHT22;11742;53.532;-1.478;2023-02-11T00:33:52;13.60;82.60
23147;DHT22;11742;53.532;-1.478;2023-02-11T00:36:36;13.70;82.60
23147;DHT22;11742;53.532;-1.478;2023-02-11T00:39:20;13.60;82.50
23147;DHT22;11742;53.532;-1.478;2023-02-11T00:42:05;13.60;82.50
23147;DHT22;11742;53.532;-1.478;2023-02-11T00:44:49;13.60;82.40
23147;DHT22;11742;53.532;-1.478;2023-02-11T00:47:33;13.60;82.50
23147;DHT22;11742;53.532;-1.478;2023-02-11T00:50:17;13.60;82.50
23147;DHT22;11742;53.532;-1.478;2023-02-11T00:53:01;13.70;82.60
23147;DHT22;11742;53.532;-1.478;2023-02-11T00:55:45;13.70;82.60
23147;DHT22;11742;53.532;-1.478;2023-02-11T00:58:29;13.60;82.70
23147;DHT22;11742;53.532;-1.478;2023-02-11T01:01:14;13.70;82.80
23147;DHT22;11742;53.532;-1.478;2023-02-11T01:03:58;13.60;82.80
23147;DHT22;11742;53.532;-1.478;2023-02-11T01:06:42;13.70;82.90
23147;DHT22;11742;53.532;-1.478;2023-02-11T01:09:26;13.70;82.90
23147;DHT22;11742;53.532;-1.478;2023-02-11T01:12:11;13.70;82.90
23147;DHT22;11742;53.532;-1.478;2023-02-11T01:14:55;13.70;82.90
23147;DHT22;11742;53.532;-1.478;2023-02-11T01:17:39;13.70;83.00
23147;DHT22;11742;53.532;-1.478;2023-02-11T01:20:24;13.70;82.70
23147;DHT22;11742;53.532;-1.478;2023-02-11T01:23:09;13.70;82.80
23147;DHT22;11742;53.532;-1.478;2023-02-11T01:25:53;13.70;82.80
23147;DHT22;11742;53.532;-1.478;2023-02-11T01:28:37;13.70;82.90
23147;DHT22;11742;53.532;-1.478;2023-02-11T01:31:21;13.70;82.90
23147;DHT22;11742;53.532;-1.478;2023-02-11T01:34:06;13.70;82.70
23147;DHT22;11742;53.532;-1.478;2023-02-11T01:36:50;13.70;82.80
23147;DHT22;11742;53.532;-1.478;2023-02-11T01:39:34;13.70;82.80
23147;DHT22;11742;53.532;-1.478;2023-02-11T01:42:19;13.70;82.80
23147;DHT22;11742;53.532;-1.478;2023-02-11T01:48:08;13.70;82.60
23147;DHT22;11742;53.532;-1.478;2023-02-11T01:50:57;13.70;82.60
23147;DHT22;11742;53.532;-1.478;2023-02-11T01:53:42;13.70;82.40
23147;DHT22;11742;53.532;-1.478;2023-02-11T01:56:47;13.70;82.40
23147;DHT22;11742;53.532;-1.478;2023-02-11T02:03:05;13.70;82.30
23147;DHT22;11742;53.532;-1.478;2023-02-11T02:05:56;13.70;82.30
23147;DHT22;11742;53.532;-1.478;2023-02-11T02:09:03;13.70;82.30
23147;DHT22;11742;53.532;-1.478;2023-02-11T02:11:49;13.70;82.30
23147;DHT22;11742;53.532;-1.478;2023-02-11T02:14:36;13.70;82.20
23147;DHT22;11742;53.532;-1.478;2023-02-11T02:17:25;13.70;82.20
23147;DHT22;11742;53.532;-1.478;2023-02-11T02:25:59;13.70;82.20
23147;DHT22;11742;53.532;-1.478;2023-02-11T02:34:35;13.80;82.20
23147;DHT22;11742;53.532;-1.478;2023-02-11T02:38:10;13.70;82.10
23147;DHT22;11742;53.532;-1.478;2023-02-11T02:40:28;13.70;82.00
23147;DHT22;11742;53.532;-1.478;2023-02-11T02:43:14;13.70;82.00
23147;DHT22;11742;53.532;-1.478;2023-02-11T02:49:14;13.70;81.80
23147;DHT22;11742;53.532;-1.478;2023-02-11T03:03:40;13.70;81.30
23147;DHT22;11742;53.532;-1.478;2023-02-11T03:09:22;13.70;81.20
23147;DHT22;11742;53.532;-1.478;2023-02-11T03:12:08;13.70;81.10
23147;DHT22;11742;53.532;-1.478;2023-02-11T03:14:53;13.60;81.00
23147;DHT22;11742;53.532;-1.478;2023-02-11T03:17:38;13.60;80.90
23147;DHT22;11742;53.532;-1.478;2023-02-11T03:20:24;13.60;80.90
23147;DHT22;11742;53.532;-1.478;2023-02-11T03:23:11;13.60;80.80
23147;DHT22;11742;53.532;-1.478;2023-02-11T03:34:57;13.60;80.80
23147;DHT22;11742;53.532;-1.478;2023-02-11T03:37:50;13.60;80.70
23147;DHT22;11742;53.532;-1.478;2023-02-11T03:40:35;13.60;80.70
23147;DHT22;11742;53.532;-1.478;2023-02-11T03:43:21;13.50;80.60
23147;DHT22;11742;53.532;-1.478;2023-02-11T03:46:06;13.50;80.60
23147;DHT22;11742;53.532;-1.478;2023-02-11T03:48:53;13.50;80.60
23147;DHT22;11742;53.532;-1.478;2023-02-11T03:51:38;13.50;80.60
23147;DHT22;11742;53.532;-1.478;2023-02-11T03:54:25;13.50;81.50
23147;DHT22;11742;53.532;-1.478;2023-02-11T03:57:10;13.50;80.70
23147;DHT22;11742;53.532;-1.478;2023-02-11T03:59:56;13.50;80.60
23147;DHT22;11742;53.532;-1.478;2023-02-11T04:02:41;13.50;80.60
23147;DHT22;11742;53.532;-1.478;2023-02-11T04:05:25;13.50;80.70
23147;DHT22;11742;53.532;-1.478;2023-02-11T04:08:10;13.40;80.70
23147;DHT22;11742;53.532;-1.478;2023-02-11T04:10:54;13.40;80.70
23147;DHT22;11742;53.532;-1.478;2023-02-11T04:13:38;13.40;80.80
23147;DHT22;11742;53.532;-1.478;2023-02-11T04:16:22;13.40;80.80
23147;DHT22;11742;53.532;-1.478;2023-02-11T04:19:07;13.40;80.80
23147;DHT22;11742;53.532;-1.478;2023-02-11T04:21:51;13.40;80.80
23147;DHT22;11742;53.532;-1.478;2023-02-11T04:24:35;13.40;80.90
23147;DHT22;11742;53.532;-1.478;2023-02-11T04:27:19;13.40;80.90
23147;DHT22;11742;53.532;-1.478;2023-02-11T04:30:04;13.40;81.00
23147;DHT22;11742;53.532;-1.478;2023-02-11T04:32:48;13.40;80.90
23147;DHT22;11742;53.532;-1.478;2023-02-11T04:35:33;13.40;81.00
23147;DHT22;11742;53.532;-1.478;2023-02-11T04:38:17;13.40;81.00
23147;DHT22;11742;53.532;-1.478;2023-02-11T04:41:01;13.40;81.10
23147;DHT22;11742;53.532;-1.478;2023-02-11T04:43:45;13.40;81.10
23147;DHT22;11742;53.532;-1.478;2023-02-11T04:46:30;13.40;81.20
23147;DHT22;11742;53.532;-1.478;2023-02-11T04:49:14;13.40;81.20
23147;DHT22;11742;53.532;-1.478;2023-02-11T04:51:59;13.30;81.20
23147;DHT22;11742;53.532;-1.478;2023-02-11T04:54:43;13.40;81.40
23147;DHT22;11742;53.532;-1.478;2023-02-11T04:57:27;13.30;81.30
23147;DHT22;11742;53.532;-1.478;2023-02-11T05:00:11;13.40;81.40
23147;DHT22;11742;53.532;-1.478;2023-02-11T05:02:55;13.40;81.40
23147;DHT22;11742;53.532;-1.478;2023-02-11T05:05:40;13.30;81.40
23147;DHT22;11742;53.532;-1.478;2023-02-11T05:08:24;13.30;81.50
23147;DHT22;11742;53.532;-1.478;2023-02-11T05:11:19;13.40;81.60
23147;DHT22;11742;53.532;-1.478;2023-02-11T05:14:04;13.30;81.50
23147;DHT22;11742;53.532;-1.478;2023-02-11T05:16:48;13.30;81.50
23147;DHT22;11742;53.532;-1.478;2023-02-11T05:19:32;13.40;81.60
23147;DHT22;11742;53.532;-1.478;2023-02-11T05:22:16;13.30;81.50
23147;DHT22;11742;53.532;-1.478;2023-02-11T05:25:01;13.30;81.60
23147;DHT22;11742;53.532;-1.478;2023-02-11T05:27:45;13.30;81.60
23147;DHT22;11742;53.532;-1.478;2023-02-11T05:30:29;13.30;81.60
23147;DHT22;11742;53.532;-1.478;2023-02-11T05:33:14;13.30;81.60
23147;DHT22;11742;53.532;-1.478;2023-02-11T05:35:59;13.40;81.70
23147;DHT22;11742;53.532;-1.478;2023-02-11T05:38:43;13.30;81.70
23147;DHT22;11742;53.532;-1.478;2023-02-11T05:41:28;13.30;81.70
23147;DHT22;11742;53.532;-1.478;2023-02-11T05:44:12;13.40;81.80
23147;DHT22;11742;53.532;-1.478;2023-02-11T05:46:56;13.30;81.80
23147;DHT22;11742;53.532;-1.478;2023-02-11T05:49:41;13.30;81.70
23147;DHT22;11742;53.532;-1.478;2023-02-11T05:52:25;13.40;81.80
23147;DHT22;11742;53.532;-1.478;2023-02-11T05:55:09;13.40;81.80
23147;DHT22;11742;53.532;-1.478;2023-02-11T05:57:53;13.40;81.80
23147;DHT22;11742;53.532;-1.478;2023-02-11T06:00:38;13.30;81.80
23147;DHT22;11742;53.532;-1.478;2023-02-11T06:03:22;13.30;81.80
23147;DHT22;11742;53.532;-1.478;2023-02-11T06:06:10;13.40;81.80
23147;DHT22;11742;53.532;-1.478;2023-02-11T06:08:54;13.40;81.90
23147;DHT22;11742;53.532;-1.478;2023-02-11T06:11:39;13.40;81.90
23147;DHT22;11742;53.532;-1.478;2023-02-11T06:14:23;13.30;81.90
23147;DHT22;11742;53.532;-1.478;2023-02-11T06:17:07;13.30;81.80
23147;DHT22;11742;53.532;-1.478;2023-02-11T06:19:51;13.30;81.90
23147;DHT22;11742;53.532;-1.478;2023-02-11T06:22:36;13.30;81.80
23147;DHT22;11742;53.532;-1.478;2023-02-11T06:25:20;13.30;81.90
23147;DHT22;11742;53.532;-1.478;2023-02-11T06:28:04;13.30;81.90
23147;DHT22;11742;53.532;-1.478;2023-02-11T06:30:49;13.30;81.90
23147;DHT22;11742;53.532;-1.478;2023-02-11T06:33:33;13.30;81.90
23147;DHT22;11742;53.532;-1.478;2023-02-11T06:36:18;13.30;81.90
23147;DHT22;11742;53.532;-1.478;2023-02-11T06:39:03;13.30;81.90
23147;DHT22;11742;53.532;-1.478;2023-02-11T06:41:47;13.30;81.90
23147;DHT22;11742;53.532;-1.478;2023-02-11T06:44:31;13.40;81.90
23147;DHT22;11742;53.532;-1.478;2023-02-11T06:47:16;13.30;81.80
23147;DHT22;11742;53.532;-1.478;2023-02-11T06:50:00;13.30;81.80
23147;DHT22;11742;53.532;-1.478;2023-02-11T06:52:44;13.30;81.70
23147;DHT22;11742;53.532;-1.478;2023-02-11T06:55:28;13.30;81.70
23147;DHT22;11742;53.532;-1.478;2023-02-11T06:58:13;13.30;81.70
23147;DHT22;11742;53.532;-1.478;2023-02-11T07:00:57;13.30;81.70
23147;DHT22;11742;53.532;-1.478;2023-02-11T07:03:42;13.30;81.70
23147;DHT22;11742;53.532;-1.478;2023-02-11T07:06:27;13.30;81.70
23147;DHT22;11742;53.532;-1.478;2023-02-11T07:09:11;13.30;81.70
23147;DHT22;11742;53.532;-1.478;2023-02-11T07:11:56;13.30;81.70
23147;DHT22;11742;53.532;-1.478;2023-02-11T07:14:40;13.30;81.60
23147;DHT22;11742;53.532;-1.478;2023-02-11T07:17:24;13.30;81.60
23147;DHT22;11742;53.532;-1.478;2023-02-11T07:20:08;13.40;81.60
23147;DHT22;11742;53.532;-1.478;2023-02-11T07:22:55;13.30;81.60
23147;DHT22;11742;53.532;-1.478;2023-02-11T07:25:40;13.30;81.50
23147;DHT22;11742;53.532;-1.478;2023-02-11T07:28:24;13.30;81.50
23147;DHT22;11742;53.532;-1.478;2023-02-11T07:31:09;13.30;81.50
23147;DHT22;11742;53.532;-1.478;2023-02-11T07:33:55;13.30;81.50
23147;DHT22;11742;53.532;-1.478;2023-02-11T07:36:39;13.30;81.40
23147;DHT22;11742;53.532;-1.478;2023-02-11T07:39:26;13.30;81.50
23147;DHT22;11742;53.532;-1.478;2023-02-11T07:42:10;13.30;81.40
23147;DHT22;11742;53.532;-1.478;2023-02-11T07:44:55;13.30;81.40
23147;DHT22;11742;53.532;-1.478;2023-02-11T07:47:39;13.30;81.70
23147;DHT22;11742;53.532;-1.478;2023-02-11T07:50:25;13.30;81.70
23147;DHT22;11742;53.532;-1.478;2023-02-11T07:53:09;13.30;81.60
23147;DHT22;11742;53.532;-1.478;2023-02-11T07:55:54;13.20;81.50
23147;DHT22;11742;53.532;-1.478;2023-02-11T07:58:38;13.20;81.50
23147;DHT22;11742;53.532;-1.478;2023-02-11T08:01:25;13.20;81.50
23147;DHT22;11742;53.532;-1.478;2023-02-11T08:04:11;13.30;81.50
23147;DHT22;11742;53.532;-1.478;2023-02-11T08:06:55;13.20;81.40
23147;DHT22;11742;53.532;-1.478;2023-02-11T08:09:41;13.30;81.50
23147;DHT22;11742;53.532;-1.478;2023-02-11T08:12:25;13.30;81.50
23147;DHT22;11742;53.532;-1.478;2023-02-11T08:15:10;13.30;81.50
23147;DHT22;11742;53.532;-1.478;2023-02-11T08:17:54;13.30;81.50
23147;DHT22;11742;53.532;-1.478;2023-02-11T08:20:38;13.30;81.40
23147;DHT22;11742;53.532;-1.478;2023-02-11T08:23:23;13.30;81.40
23147;DHT22;11742;53.532;-1.478;2023-02-11T08:26:08;13.30;81.40
23147;DHT22;11742;53.532;-1.478;2023-02-11T08:28:53;13.30;81.40
23147;DHT22;11742;53.532;-1.478;2023-02-11T08:31:38;13.30;81.40
23147;DHT22;11742;53.532;-1.478;2023-02-11T08:34:23;13.30;81.40
23147;DHT22;11742;53.532;-1.478;2023-02-11T08:37:08;13.30;81.30
23147;DHT22;11742;53.532;-1.478;2023-02-11T08:39:52;13.40;81.40
23147;DHT22;11742;53.532;-1.478;2023-02-11T08:42:36;13.30;81.30
23147;DHT22;11742;53.532;-1.478;2023-02-11T08:45:21;13.40;81.40
23147;DHT22;11742;53.532;-1.478;2023-02-11T08:48:05;13.30;81.40
23147;DHT22;11742;53.532;-1.478;2023-02-11T08:50:49;13.40;81.50
23147;DHT22;11742;53.532;-1.478;2023-02-11T08:53:34;13.30;81.40
23147;DHT22;11742;53.532;-1.478;2023-02-11T08:56:18;13.30;81.30
23147;DHT22;11742;53.532;-1.478;2023-02-11T08:59:03;13.40;81.50
23147;DHT22;11742;53.532;-1.478;2023-02-11T09:01:47;13.40;81.40
23147;DHT22;11742;53.532;-1.478;2023-02-11T09:04:32;13.40;81.50
23147;DHT22;11742;53.532;-1.478;2023-02-11T09:07:16;13.40;81.50
23147;DHT22;11742;53.532;-1.478;2023-02-11T09:10:01;13.40;81.60
23147;DHT22;11742;53.532;-1.478;2023-02-11T09:12:45;13.40;81.60
23147;DHT22;11742;53.532;-1.478;2023-02-11T09:15:29;13.40;81.60
23147;DHT22;11742;53.532;-1.478;2023-02-11T09:18:14;13.50;81.70
23147;DHT22;11742;53.532;-1.478;2023-02-11T09:21:02;13.40;81.60
23147;DHT22;11742;53.532;-1.478;2023-02-11T09:23:47;13.50;81.70
23147;DHT22;11742;53.532;-1.478;2023-02-11T09:26:32;13.50;81.80
23147;DHT22;11742;53.532;-1.478;2023-02-11T09:29:16;13.50;81.80
23147;DHT22;11742;53.532;-1.478;2023-02-11T09:32:00;13.50;81.80
23147;DHT22;11742;53.532;-1.478;2023-02-11T09:34:44;13.50;81.80
23147;DHT22;11742;53.532;-1.478;2023-02-11T09:37:29;13.50;81.80
23147;DHT22;11742;53.532;-1.478;2023-02-11T09:40:13;13.50;81.80
23147;DHT22;11742;53.532;-1.478;2023-02-11T09:43:07;13.50;81.90
23147;DHT22;11742;53.532;-1.478;2023-02-11T09:45:55;13.60;82.00
23147;DHT22;11742;53.532;-1.478;2023-02-11T09:48:40;13.60;82.00
23147;DHT22;11742;53.532;-1.478;2023-02-11T09:51:35;13.60;82.00
23147;DHT22;11742;53.532;-1.478;2023-02-11T09:54:28;13.60;82.00
23147;DHT22;11742;53.532;-1.478;2023-02-11T09:57:14;13.60;82.00
23147;DHT22;11742;53.532;-1.478;2023-02-11T09:59:59;13.60;81.90
23147;DHT22;11742;53.532;-1.478;2023-02-11T10:02:54;13.60;81.90
23147;DHT22;11742;53.532;-1.478;2023-02-11T10:05:49;13.70;81.90
23147;DHT22;11742;53.532;-1.478;2023-02-11T10:11:51;13.70;81.90
23147;DHT22;11742;53.532;-1.478;2023-02-11T10:17:37;13.70;81.90
23147;DHT22;11742;53.532;-1.478;2023-02-11T10:23:14;13.70;82.00
23147;DHT22;11742;53.532;-1.478;2023-02-11T10:25:59;13.80;82.10
23147;DHT22;11742;53.532;-1.478;2023-02-11T10:28:47;13.80;82.00
23147;DHT22;11742;53.532;-1.478;2023-02-11T10:31:34;13.80;82.00
23147;DHT22;11742;53.532;-1.478;2023-02-11T10:34:19;13.80;81.90
23147;DHT22;11742;53.532;-1.478;2023-02-11T10:37:03;13.80;82.00
23147;DHT22;11742;53.532;-1.478;2023-02-11T10:39:47;13.80;82.00
23147;DHT22;11742;53.532;-1.478;2023-02-11T10:42:31;13.90;82.10
23147;DHT22;11742;53.532;-1.478;2023-02-11T10:45:49;13.90;82.30
23147;DHT22;11742;53.532;-1.478;2023-02-11T10:48:43;13.90;82.40
23147;DHT22;11742;53.532;-1.478;2023-02-11T10:51:28;13.90;82.40
23147;DHT22;11742;53.532;-1.478;2023-02-11T10:54:17;14.00;82.40
23147;DHT22;11742;53.532;-1.478;2023-02-11T10:57:04;14.00;82.40
23147;DHT22;11742;53.532;-1.478;2023-02-11T10:59:48;14.00;82.40
23147;DHT22;11742;53.532;-1.478;2023-02-11T11:02:41;14.00;82.40
23147;DHT22;11742;53.532;-1.478;2023-02-11T11:05:29;14.10;82.50
23147;DHT22;11742;53.532;-1.478;2023-02-11T11:08:14;14.10;82.40
23147;DHT22;11742;53.532;-1.478;2023-02-11T11:11:06;14.20;82.60
23147;DHT22;11742;53.532;-1.478;2023-02-11T11:16:35;14.20;82.60
23147;DHT22;11742;53.532;-1.478;2023-02-11T11:19:21;14.20;82.60
23147;DHT22;11742;53.532;-1.478;2023-02-11T11:22:05;14.30;82.60
23147;DHT22;11742;53.532;-1.478;2023-02-11T11:24:49;14.30;82.70
23147;DHT22;11742;53.532;-1.478;2023-02-11T11:27:38;14.30;82.70
23147;DHT22;11742;53.532;-1.478;2023-02-11T11:30:22;14.40;82.70
23147;DHT22;11742;53.532;-1.478;2023-02-11T11:36:33;14.40;82.40
23147;DHT22;11742;53.532;-1.478;2023-02-11T11:39:19;14.50;82.30
23147;DHT22;11742;53.532;-1.478;2023-02-11T11:42:21;14.50;82.30
23147;DHT22;11742;53.532;-1.478;2023-02-11T11:48:13;14.50;82.20
23147;DHT22;11742;53.532;-1.478;2023-02-11T11:51:04;14.60;82.10
23147;DHT22;11742;53.532;-1.478;2023-02-11T11:57:09;14.60;82.30
23147;DHT22;11742;53.532;-1.478;2023-02-11T11:59:56;14.60;82.20
23147;DHT22;11742;53.532;-1.478;2023-02-11T12:27:05;14.90;82.60
23147;DHT22;11742;53.532;-1.478;2023-02-11T12:32:39;15.00;82.70
23147;DHT22;11742;53.532;-1.478;2023-02-11T12:47:24;15.20;82.40
23147;DHT22;11742;53.532;-1.478;2023-02-11T12:59:42;15.30;82.40
23147;DHT22;11742;53.532;-1.478;2023-02-11T13:02:36;15.30;82.40
23147;DHT22;11742;53.532;-1.478;2023-02-11T13:05:31;15.30;82.10
23147;DHT22;11742;53.532;-1.478;2023-02-11T13:08:30;15.40;82.10
23147;DHT22;11742;53.532;-1.478;2023-02-11T13:11:23;15.40;81.80
23147;DHT22;11742;53.532;-1.478;2023-02-11T13:14:09;15.40;81.90
23147;DHT22;11742;53.532;-1.478;2023-02-11T13:16:55;15.40;81.80
23147;DHT22;11742;53.532;-1.478;2023-02-11T13:19:43;15.40;81.80
23147;DHT22;11742;53.532;-1.478;2023-02-11T13:22:37;15.50;81.80
23147;DHT22;11742;53.532;-1.478;2023-02-11T13:25:42;15.50;81.80
23147;DHT22;11742;53.532;-1.478;2023-02-11T13:28:39;15.50;81.80
23147;DHT22;11742;53.532;-1.478;2023-02-11T13:31:27;15.60;81.00
23147;DHT22;11742;53.532;-1.478;2023-02-11T13:34:22;15.50;78.90
23147;DHT22;11742;53.532;-1.478;2023-02-11T13:40:23;15.50;79.80
23147;DHT22;11742;53.532;-1.478;2023-02-11T13:43:19;15.50;79.70
23147;DHT22;11742;53.532;-1.478;2023-02-11T13:46:04;15.50;79.80
23147;DHT22;11742;53.532;-1.478;2023-02-11T13:48:50;15.50;80.00
23147;DHT22;11742;53.532;-1.478;2023-02-11T13:51:39;15.50;78.50
23147;DHT22;11742;53.532;-1.478;2023-02-11T13:54:45;15.40;79.30
23147;DHT22;11742;53.532;-1.478;2023-02-11T13:57:31;15.40;79.70
23147;DHT22;11742;53.532;-1.478;2023-02-11T14:03:39;15.40;79.90
23147;DHT22;11742;53.532;-1.478;2023-02-11T14:13:28;15.40;79.50
23147;DHT22;11742;53.532;-1.478;2023-02-11T14:16:17;15.40;79.40
23147;DHT22;11742;53.532;-1.478;2023-02-11T14:19:03;15.50;79.50
23147;DHT22;11742;53.532;-1.478;2023-02-11T14:21:47;15.40;79.50
23147;DHT22;11742;53.532;-1.478;2023-02-11T14:27:37;15.50;79.50
23147;DHT22;11742;53.532;-1.478;2023-02-11T14:33:49;15.50;79.50
23147;DHT22;11742;53.532;-1.478;2023-02-11T14:42:30;15.50;79.30
23147;DHT22;11742;53.532;-1.478;2023-02-11T14:45:17;15.40;79.10
23147;DHT22;11742;53.532;-1.478;2023-02-11T14:48:16;15.50;79.30
23147;DHT22;11742;53.532;-1.478;2023-02-11T14:51:03;15.50;79.40
23147;DHT22;11742;53.532;-1.478;2023-02-11T14:53:49;15.40;79.10
23147;DHT22;11742;53.532;-1.478;2023-02-11T14:56:35;15.40;79.00
23147;DHT22;11742;53.532;-1.478;2023-02-11T14:59:20;15.50;79.00
23147;DHT22;11742;53.532;-1.478;2023-02-11T15:02:25;15.40;78.80
23147;DHT22;11742;53.532;-1.478;2023-02-11T15:05:15;15.40;79.10
23147;DHT22;11742;53.532;-1.478;2023-02-11T15:08:01;15.40;79.00
23147;DHT22;11742;53.532;-1.478;2023-02-11T15:10:45;15.40;78.80
23147;DHT22;11742;53.532;-1.478;2023-02-11T15:13:30;15.40;78.30
23147;DHT22;11742;53.532;-1.478;2023-02-11T15:16:15;15.40;78.30
23147;DHT22;11742;53.532;-1.478;2023-02-11T15:19:02;15.30;79.00
23147;DHT22;11742;53.532;-1.478;2023-02-11T15:21:47;15.40;79.20
23147;DHT22;11742;53.532;-1.478;2023-02-11T15:24:33;15.30;79.30
23147;DHT22;11742;53.532;-1.478;2023-02-11T15:27:18;15.30;79.40
23147;DHT22;11742;53.532;-1.478;2023-02-11T15:30:09;15.40;79.50
23147;DHT22;11742;53.532;-1.478;2023-02-11T15:33:01;15.40;79.50
23147;DHT22;11742;53.532;-1.478;2023-02-11T15:35:46;15.40;79.50
23147;DHT22;11742;53.532;-1.478;2023-02-11T15:38:30;15.40;79.30
23147;DHT22;11742;53.532;-1.478;2023-02-11T15:41:32;15.40;79.50
23147;DHT22;11742;53.532;-1.478;2023-02-11T15:44:27;15.40;79.40
23147;DHT22;11742;53.532;-1.478;2023-02-11T15:47:12;15.40;79.30
23147;DHT22;11742;53.532;-1.478;2023-02-11T15:49:59;15.40;79.40
23147;DHT22;11742;53.532;-1.478;2023-02-11T15:52:43;15.40;79.20
23147;DHT22;11742;53.532;-1.478;2023-02-11T15:55:29;15.40;79.20
23147;DHT22;11742;53.532;-1.478;2023-02-11T15:58:13;15.40;79.20
23147;DHT22;11742;53.532;-1.478;2023-02-11T16:00:58;15.40;79.10
23147;DHT22;11742;53.532;-1.478;2023-02-11T16:03:43;15.50;79.20
23147;DHT22;11742;53.532;-1.478;2023-02-11T16:06:39;15.40;79.10
23147;DHT22;11742;53.532;-1.478;2023-02-11T16:09:33;15.40;79.10
23147;DHT22;11742;53.532;-1.478;2023-02-11T16:12:22;15.40;79.00
23147;DHT22;11742;53.532;-1.478;2023-02-11T16:18:14;15.40;78.90
23147;DHT22;11742;53.532;-1.478;2023-02-11T16:20:59;15.40;79.00
23147;DHT22;11742;53.532;-1.478;2023-02-11T16:23:53;15.40;79.00
23147;DHT22;11742;53.532;-1.478;2023-02-11T16:26:38;15.40;78.80
23147;DHT22;11742;53.532;-1.478;2023-02-11T16:29:27;15.40;78.80
23147;DHT22;11742;53.532;-1.478;2023-02-11T16:32:15;15.40;78.80
23147;DHT22;11742;53.532;-1.478;2023-02-11T16:35:00;15.40;78.90
23147;DHT22;11742;53.532;-1.478;2023-02-11T16:37:44;15.40;78.80
23147;DHT22;11742;53.532;-1.478;2023-02-11T16:40:28;15.40;78.80
23147;DHT22;11742;53.532;-1.478;2023-02-11T16:43:13;15.40;78.90
23147;DHT22;11742;53.532;-1.478;2023-02-11T16:45:57;15.40;78.80
23147;DHT22;11742;53.532;-1.478;2023-02-11T16:48:42;15.40;78.70
23147;DHT22;11742;53.532;-1.478;2023-02-11T16:51:26;15.40;78.80
23147;DHT22;11742;53.532;-1.478;2023-02-11T16:54:11;15.40;78.70
23147;DHT22;11742;53.532;-1.478;2023-02-11T16:56:56;15.30;78.60
23147;DHT22;11742;53.532;-1.478;2023-02-11T16:59:41;15.40;78.70
23147;DHT22;11742;53.532;-1.478;2023-02-11T17:02:26;15.30;78.60
23147;DHT22;11742;53.532;-1.478;2023-02-11T17:05:16;15.30;78.60
23147;DHT22;11742;53.532;-1.478;2023-02-11T17:08:01;15.30;78.60
23147;DHT22;11742;53.532;-1.478;2023-02-11T17:10:47;15.30;78.60
23147;DHT22;11742;53.532;-1.478;2023-02-11T17:13:31;15.30;78.60
23147;DHT22;11742;53.532;-1.478;2023-02-11T17:16:19;15.30;78.60
23147;DHT22;11742;53.532;-1.478;2023-02-11T17:19:04;15.30;77.20
23147;DHT22;11742;53.532;-1.478;2023-02-11T17:21:49;15.20;78.00
23147;DHT22;11742;53.532;-1.478;2023-02-11T17:24:34;15.10;78.00
23147;DHT22;11742;53.532;-1.478;2023-02-11T17:27:18;15.10;78.10
23147;DHT22;11742;53.532;-1.478;2023-02-11T17:30:03;15.10;79.20
23147;DHT22;11742;53.532;-1.478;2023-02-11T17:32:48;15.00;78.40
23147;DHT22;11742;53.532;-1.478;2023-02-11T17:35:32;15.00;78.50
23147;DHT22;11742;53.532;-1.478;2023-02-11T17:38:16;15.00;78.50
23147;DHT22;11742;53.532;-1.478;2023-02-11T17:41:01;15.00;78.50
23147;DHT22;11742;53.532;-1.478;2023-02-11T17:43:46;15.00;78.50
23147;DHT22;11742;53.532;-1.478;2023-02-11T17:46:30;15.00;78.50
23147;DHT22;11742;53.532;-1.478;2023-02-11T17:49:15;15.00;78.50
23147;DHT22;11742;53.532;-1.478;2023-02-11T17:51:59;14.90;78.30
23147;DHT22;11742;53.532;-1.478;2023-02-11T17:54:43;14.90;78.40
23147;DHT22;11742;53.532;-1.478;2023-02-11T17:57:28;14.90;78.40
23147;DHT22;11742;53.532;-1.478;2023-02-11T18:00:12;14.90;78.40
23147;DHT22;11742;53.532;-1.478;2023-02-11T18:02:57;14.90;78.50
23147;DHT22;11742;53.532;-1.478;2023-02-11T18:05:45;14.90;78.40
23147;DHT22;11742;53.532;-1.478;2023-02-11T18:08:30;14.80;78.30
23147;DHT22;11742;53.532;-1.478;2023-02-11T18:11:15;14.80;78.40
23147;DHT22;11742;53.532;-1.478;2023-02-11T18:14:03;14.80;78.30
23147;DHT22;11742;53.532;-1.478;2023-02-11T18:16:51;14.80;78.30
23147;DHT22;11742;53.532;-1.478;2023-02-11T18:19:35;14.80;78.40
23147;DHT22;11742;53.532;-1.478;2023-02-11T18:22:20;14.80;78.20
23147;DHT22;11742;53.532;-1.478;2023-02-11T18:25:05;14.80;78.50
23147;DHT22;11742;53.532;-1.478;2023-02-11T18:27:50;14.70;78.30
23147;DHT22;11742;53.532;-1.478;2023-02-11T18:30:35;14.70;78.50
23147;DHT22;11742;53.532;-1.478;2023-02-11T18:33:19;14.70;78.50
23147;DHT22;11742;53.532;-1.478;2023-02-11T18:36:04;14.70;78.40
23147;DHT22;11742;53.532;-1.478;2023-02-11T18:38:49;14.70;78.50
23147;DHT22;11742;53.532;-1.478;2023-02-11T18:41:35;14.70;78.50
23147;DHT22;11742;53.532;-1.478;2023-02-11T18:44:19;14.70;78.50
23147;DHT22;11742;53.532;-1.478;2023-02-11T18:47:07;14.70;78.50
23147;DHT22;11742;53.532;-1.478;2023-02-11T18:49:51;14.70;78.50
23147;DHT22;11742;53.532;-1.478;2023-02-11T18:52:35;14.70;78.40
23147;DHT22;11742;53.532;-1.478;2023-02-11T18:55:21;14.60;78.50
23147;DHT22;11742;53.532;-1.478;2023-02-11T18:58:08;14.60;78.60
23147;DHT22;11742;53.532;-1.478;2023-02-11T19:00:52;14.60;78.60
23147;DHT22;11742;53.532;-1.478;2023-02-11T19:03:37;14.60;78.50
23147;DHT22;11742;53.532;-1.478;2023-02-11T19:06:31;14.60;78.40
23147;DHT22;11742;53.532;-1.478;2023-02-11T19:09:17;14.60;78.50
23147;DHT22;11742;53.532;-1.478;2023-02-11T19:12:02;14.60;78.50
23147;DHT22;11742;53.532;-1.478;2023-02-11T19:14:46;14.60;78.50
23147;DHT22;11742;53.532;-1.478;2023-02-11T19:17:30;14.50;78.40
23147;DHT22;11742;53.532;-1.478;2023-02-11T19:20:14;14.50;78.60
23147;DHT22;11742;53.532;-1.478;2023-02-11T19:22:59;14.50;78.60
23147;DHT22;11742;53.532;-1.478;2023-02-11T19:25:44;14.50;78.70
23147;DHT22;11742;53.532;-1.478;2023-02-11T19:28:30;14.50;78.50
23147;DHT22;11742;53.532;-1.478;2023-02-11T19:31:14;14.50;78.70
23147;DHT22;11742;53.532;-1.478;2023-02-11T19:33:59;14.50;78.70
23147;DHT22;11742;53.532;-1.478;2023-02-11T19:36:43;14.50;78.60